Flight Track Log - Related Links

Times and Time Zones

All times are in EDT time to prevent confusion due to time zone crossing. See the EJA131 flight status page for this flight to view local times or setup timezone preferences in your user account.

Time Position Orientation Groundspeed Altitude Reporting Facility
EDT Latitude Longitude Course Direction KTS MPH feet Rate Location/Type
Wed 06:47:21 AM 41.1000 -73.7333 358° North 188 216 2,900  Level New York TRACON
Wed 06:48:21 AM 41.1500 -73.7333 360° North 249 287 5,800 2,800 Climbing New York TRACON
Wed 06:49:21 AM 41.2167 -73.6667 37° Northeast 272 313 8,500 2,543 Climbing New York TRACON
Wed 06:50:52 AM 41.2903 -73.5728 44° Northeast 280 322 12,200 1,788 Climbing Boston Center
Wed 06:51:52 AM 41.3778 -73.5550 North 269 310 13,000 350 Climbing Boston Center
Wed 06:52:00 AM 41.5706 -73.7353 358° North  Level Estimated
Wed 06:52:52 AM 41.4694 -73.5539 North 329 379 12,900  Level Boston Center
Wed 06:53:52 AM 41.5781 -73.5472 North 361 415 12,300 -450 Descending Boston Center
Wed 06:54:52 AM 41.6656 -73.5433 North 361 415 12,000 -300 Descending Boston Center
Wed 06:55:52 AM 41.7761 -73.5397 North 361 415 11,700 -300 Descending Boston Center
Wed 06:56:52 AM 41.8678 -73.5356 North 366 421 11,400 -300 Descending Boston Center
Wed 06:57:52 AM 41.9764 -73.5292 North 360 414 11,100 -270 Descending Boston Center
Wed 06:58:21 AM 42.0264 -73.5300 359° North 349 402 11,000 -100 Descending Boston Center
Wed 06:58:52 AM 42.0742 -73.5281 North 350 403 11,000  Level Boston Center
Wed 06:59:34 AM 42.1450 -73.5350 356° North 348 400 11,000  Level Boston Center
Wed 06:59:52 AM 42.1700 -73.5408 350° North 345 397 11,000  Level Boston Center
Wed 07:00:35 AM 42.2406 -73.5617 348° North 353 406 11,000 -300 Level Boston Center
Wed 07:00:52 AM 42.2633 -73.5733 339° North 345 397 10,700 -1,091 Descending Boston Center
Wed 07:01:41 AM 42.3192 -73.6167 330° Northwest 280 322 9,800 -1,582 Descending Boston Center
Wed 07:02:42 AM 42.3833 -73.6628 332° Northwest 245 282 7,800 -1,983 Descending Boston Center
Wed 07:03:42 AM 42.4433 -73.7117 329° Northwest 245 282 5,800 -1,983 Descending Boston Center
Wed 07:04:43 AM 42.5011 -73.7553 331° Northwest 240 276 3,800 -1,869 Descending Boston Center
Wed 07:05:44 AM 42.5592 -73.7958 333° Northwest 235 270 2,000 -893 Descending Boston Center
Wed 07:06:44 AM 42.6278 -73.8003 357° North 225 259 2,000  Level Boston Center

Login

Don't have an account? Register now (free) for customized features, flight alerts, and more!